sensor_id;sensor_type;location;lat;lon;timestamp;temperature;humidity
59208;DHT22;44977;53.132;6.408;2023-04-15T00:02:29;8.10;99.90
59208;DHT22;44977;53.132;6.408;2023-04-15T00:07:30;8.10;99.90
59208;DHT22;44977;53.132;6.408;2023-04-15T00:12:32;8.00;99.90
59208;DHT22;44977;53.132;6.408;2023-04-15T00:17:33;8.00;99.90
59208;DHT22;44977;53.132;6.408;2023-04-15T00:22:33;7.90;99.90
59208;DHT22;44977;53.132;6.408;2023-04-15T00:27:34;7.90;99.90
59208;DHT22;44977;53.132;6.408;2023-04-15T00:32:35;7.80;99.90
59208;DHT22;44977;53.132;6.408;2023-04-15T00:37:36;7.70;99.90
59208;DHT22;44977;53.132;6.408;2023-04-15T00:42:37;7.70;99.90
59208;DHT22;44977;53.132;6.408;2023-04-15T00:47:40;7.60;99.90
59208;DHT22;44977;53.132;6.408;2023-04-15T00:52:42;7.60;99.90
59208;DHT22;44977;53.132;6.408;2023-04-15T00:57:43;7.50;99.90
59208;DHT22;44977;53.132;6.408;2023-04-15T01:02:44;7.50;99.90
59208;DHT22;44977;53.132;6.408;2023-04-15T01:07:46;7.50;99.90
59208;DHT22;44977;53.132;6.408;2023-04-15T01:12:47;7.40;99.90
59208;DHT22;44977;53.132;6.408;2023-04-15T01:17:48;7.40;99.90
59208;DHT22;44977;53.132;6.408;2023-04-15T01:22:49;7.30;99.90
59208;DHT22;44977;53.132;6.408;2023-04-15T01:27:50;7.30;99.90
59208;DHT22;44977;53.132;6.408;2023-04-15T01:32:52;7.20;99.90
59208;DHT22;44977;53.132;6.408;2023-04-15T01:37:53;7.20;99.90
59208;DHT22;44977;53.132;6.408;2023-04-15T01:42:54;7.10;99.90
59208;DHT22;44977;53.132;6.408;2023-04-15T01:47:55;7.20;99.90
59208;DHT22;44977;53.132;6.408;2023-04-15T01:52:56;7.10;99.90
59208;DHT22;44977;53.132;6.408;2023-04-15T01:57:56;7.00;99.90
59208;DHT22;44977;53.132;6.408;2023-04-15T02:02:57;7.00;99.90
59208;DHT22;44977;53.132;6.408;2023-04-15T02:07:58;7.00;99.90
59208;DHT22;44977;53.132;6.408;2023-04-15T02:12:59;6.90;99.90
59208;DHT22;44977;53.132;6.408;2023-04-15T02:18:00;6.80;99.90
59208;DHT22;44977;53.132;6.408;2023-04-15T02:23:01;6.80;99.90
59208;DHT22;44977;53.132;6.408;2023-04-15T02:28:02;6.70;99.90
59208;DHT22;44977;53.132;6.408;2023-04-15T02:33:03;6.70;99.90
59208;DHT22;44977;53.132;6.408;2023-04-15T02:38:04;6.70;99.90
59208;DHT22;44977;53.132;6.408;2023-04-15T02:43:04;6.60;99.90
59208;DHT22;44977;53.132;6.408;2023-04-15T02:48:06;6.60;99.90
59208;DHT22;44977;53.132;6.408;2023-04-15T02:53:07;6.60;99.90
59208;DHT22;44977;53.132;6.408;2023-04-15T02:58:07;6.60;99.90
59208;DHT22;44977;53.132;6.408;2023-04-15T03:03:08;6.50;99.90
59208;DHT22;44977;53.132;6.408;2023-04-15T03:08:10;6.50;99.90
59208;DHT22;44977;53.132;6.408;2023-04-15T03:13:10;6.40;99.90
59208;DHT22;44977;53.132;6.408;2023-04-15T03:18:11;6.40;99.90
59208;DHT22;44977;53.132;6.408;2023-04-15T03:23:12;6.40;99.90
59208;DHT22;44977;53.132;6.408;2023-04-15T03:28:12;6.30;99.90
59208;DHT22;44977;53.132;6.408;2023-04-15T03:33:13;6.30;99.90
59208;DHT22;44977;53.132;6.408;2023-04-15T03:38:14;6.20;99.90
59208;DHT22;44977;53.132;6.408;2023-04-15T03:43:15;6.20;99.90
59208;DHT22;44977;53.132;6.408;2023-04-15T03:48:16;6.10;99.90
59208;DHT22;44977;53.132;6.408;2023-04-15T03:53:16;6.00;99.90
59208;DHT22;44977;53.132;6.408;2023-04-15T03:58:17;5.90;99.90
59208;DHT22;44977;53.132;6.408;2023-04-15T04:03:18;5.80;99.90
59208;DHT22;44977;53.132;6.408;2023-04-15T04:08:18;5.80;99.90
59208;DHT22;44977;53.132;6.408;2023-04-15T04:13:21;5.70;99.90
59208;DHT22;44977;53.132;6.408;2023-04-15T04:18:21;5.70;99.90
59208;DHT22;44977;53.132;6.408;2023-04-15T04:23:22;5.60;99.90
59208;DHT22;44977;53.132;6.408;2023-04-15T04:28:23;5.60;99.90
59208;DHT22;44977;53.132;6.408;2023-04-15T04:33:23;5.50;99.90
59208;DHT22;44977;53.132;6.408;2023-04-15T04:38:24;5.50;99.90
59208;DHT22;44977;53.132;6.408;2023-04-15T04:43:25;5.40;99.90
59208;DHT22;44977;53.132;6.408;2023-04-15T04:48:26;5.40;99.90
59208;DHT22;44977;53.132;6.408;2023-04-15T04:53:27;5.30;99.90
59208;DHT22;44977;53.132;6.408;2023-04-15T04:58:27;5.30;99.90
59208;DHT22;44977;53.132;6.408;2023-04-15T05:03:28;5.30;99.90
59208;DHT22;44977;53.132;6.408;2023-04-15T05:08:29;5.20;99.90
59208;DHT22;44977;53.132;6.408;2023-04-15T05:13:30;5.20;99.90
59208;DHT22;44977;53.132;6.408;2023-04-15T05:18:31;5.20;99.90
59208;DHT22;44977;53.132;6.408;2023-04-15T05:23:31;5.20;99.90
59208;DHT22;44977;53.132;6.408;2023-04-15T05:28:32;5.20;99.90
59208;DHT22;44977;53.132;6.408;2023-04-15T05:33:33;5.30;99.90
59208;DHT22;44977;53.132;6.408;2023-04-15T05:38:33;5.30;99.90
59208;DHT22;44977;53.132;6.408;2023-04-15T05:43:34;5.40;99.90
59208;DHT22;44977;53.132;6.408;2023-04-15T05:48:35;5.50;99.90
59208;DHT22;44977;53.132;6.408;2023-04-15T05:53:36;5.70;99.90
59208;DHT22;44977;53.132;6.408;2023-04-15T05:58:37;5.80;99.90
59208;DHT22;44977;53.132;6.408;2023-04-15T06:03:37;5.90;99.90
59208;DHT22;44977;53.132;6.408;2023-04-15T06:08:39;6.00;99.90
59208;DHT22;44977;53.132;6.408;2023-04-15T06:13:39;6.20;99.90
59208;DHT22;44977;53.132;6.408;2023-04-15T06:18:40;6.30;99.90
59208;DHT22;44977;53.132;6.408;2023-04-15T06:23:41;6.40;99.90
59208;DHT22;44977;53.132;6.408;2023-04-15T06:28:41;6.50;99.90
59208;DHT22;44977;53.132;6.408;2023-04-15T06:33:42;6.60;99.90
59208;DHT22;44977;53.132;6.408;2023-04-15T06:38:43;6.70;99.90
59208;DHT22;44977;53.132;6.408;2023-04-15T06:43:43;6.90;99.90
59208;DHT22;44977;53.132;6.408;2023-04-15T06:48:44;7.00;99.90
59208;DHT22;44977;53.132;6.408;2023-04-15T06:53:45;7.20;99.90
59208;DHT22;44977;53.132;6.408;2023-04-15T06:58:45;7.40;99.90
59208;DHT22;44977;53.132;6.408;2023-04-15T07:03:46;7.60;99.90
59208;DHT22;44977;53.132;6.408;2023-04-15T07:08:47;7.80;99.90
59208;DHT22;44977;53.132;6.408;2023-04-15T07:13:48;7.90;99.90
59208;DHT22;44977;53.132;6.408;2023-04-15T07:18:48;8.10;99.90
59208;DHT22;44977;53.132;6.408;2023-04-15T07:23:49;8.20;99.90
59208;DHT22;44977;53.132;6.408;2023-04-15T07:28:50;8.30;99.90
59208;DHT22;44977;53.132;6.408;2023-04-15T07:33:51;8.40;99.90
59208;DHT22;44977;53.132;6.408;2023-04-15T07:38:52;8.60;99.90
59208;DHT22;44977;53.132;6.408;2023-04-15T07:43:54;8.80;99.90
59208;DHT22;44977;53.132;6.408;2023-04-15T07:48:55;8.90;99.90
59208;DHT22;44977;53.132;6.408;2023-04-15T07:53:56;9.00;99.90
59208;DHT22;44977;53.132;6.408;2023-04-15T07:58:56;9.00;99.90
59208;DHT22;44977;53.132;6.408;2023-04-15T08:03:58;9.10;99.90
59208;DHT22;44977;53.132;6.408;2023-04-15T08:08:59;9.20;99.90
59208;DHT22;44977;53.132;6.408;2023-04-15T08:14:03;9.20;99.90
59208;DHT22;44977;53.132;6.408;2023-04-15T08:19:03;9.20;99.90
59208;DHT22;44977;53.132;6.408;2023-04-15T08:24:05;9.20;99.90
59208;DHT22;44977;53.132;6.408;2023-04-15T08:29:06;9.20;99.90
59208;DHT22;44977;53.132;6.408;2023-04-15T08:34:07;9.20;99.90
59208;DHT22;44977;53.132;6.408;2023-04-15T08:39:07;9.10;99.90
59208;DHT22;44977;53.132;6.408;2023-04-15T08:44:08;9.10;99.90
59208;DHT22;44977;53.132;6.408;2023-04-15T08:49:11;9.20;99.90
59208;DHT22;44977;53.132;6.408;2023-04-15T08:54:12;9.20;99.90
59208;DHT22;44977;53.132;6.408;2023-04-15T08:59:14;9.20;99.90
59208;DHT22;44977;53.132;6.408;2023-04-15T09:04:16;9.20;99.90
59208;DHT22;44977;53.132;6.408;2023-04-15T09:09:17;9.20;99.90
59208;DHT22;44977;53.132;6.408;2023-04-15T09:14:17;9.30;99.90
59208;DHT22;44977;53.132;6.408;2023-04-15T09:19:22;9.20;99.90
59208;DHT22;44977;53.132;6.408;2023-04-15T09:24:23;9.20;99.90
59208;DHT22;44977;53.132;6.408;2023-04-15T09:29:24;9.20;99.90
59208;DHT22;44977;53.132;6.408;2023-04-15T09:34:35;9.20;99.90
59208;DHT22;44977;53.132;6.408;2023-04-15T09:39:50;9.10;99.90
59208;DHT22;44977;53.132;6.408;2023-04-15T09:44:51;9.20;99.90
59208;DHT22;44977;53.132;6.408;2023-04-15T09:49:56;9.30;99.90
59208;DHT22;44977;53.132;6.408;2023-04-15T09:54:58;9.40;99.90
59208;DHT22;44977;53.132;6.408;2023-04-15T09:59:59;9.60;99.90
59208;DHT22;44977;53.132;6.408;2023-04-15T10:05:01;9.70;99.90
59208;DHT22;44977;53.132;6.408;2023-04-15T10:10:02;9.80;99.90
59208;DHT22;44977;53.132;6.408;2023-04-15T10:15:05;9.90;99.90
59208;DHT22;44977;53.132;6.408;2023-04-15T10:20:07;9.90;99.90
59208;DHT22;44977;53.132;6.408;2023-04-15T10:25:09;10.00;99.90
59208;DHT22;44977;53.132;6.408;2023-04-15T10:30:11;10.10;99.90
59208;DHT22;44977;53.132;6.408;2023-04-15T10:35:12;10.10;99.90
59208;DHT22;44977;53.132;6.408;2023-04-15T10:40:30;10.20;99.90
59208;DHT22;44977;53.132;6.408;2023-04-15T10:45:37;10.10;99.90
59208;DHT22;44977;53.132;6.408;2023-04-15T10:50:38;10.10;99.90
59208;DHT22;44977;53.132;6.408;2023-04-15T10:55:39;10.10;99.90
59208;DHT22;44977;53.132;6.408;2023-04-15T11:00:40;10.10;99.90
59208;DHT22;44977;53.132;6.408;2023-04-15T11:05:53;10.10;99.90
59208;DHT22;44977;53.132;6.408;2023-04-15T11:10:53;10.10;99.90
59208;DHT22;44977;53.132;6.408;2023-04-15T11:15:56;10.10;99.90
59208;DHT22;44977;53.132;6.408;2023-04-15T11:21:00;10.00;99.90
59208;DHT22;44977;53.132;6.408;2023-04-15T11:26:03;10.00;99.90
59208;DHT22;44977;53.132;6.408;2023-04-15T11:31:14;10.00;99.90
59208;DHT22;44977;53.132;6.408;2023-04-15T11:36:14;10.10;99.90
59208;DHT22;44977;53.132;6.408;2023-04-15T11:41:19;10.10;99.90
59208;DHT22;44977;53.132;6.408;2023-04-15T11:46:27;10.20;99.90
59208;DHT22;44977;53.132;6.408;2023-04-15T11:51:32;10.30;99.90
59208;DHT22;44977;53.132;6.408;2023-04-15T11:56:33;10.40;99.90
59208;DHT22;44977;53.132;6.408;2023-04-15T12:01:35;10.40;99.90
59208;DHT22;44977;53.132;6.408;2023-04-15T12:06:38;10.30;99.90
59208;DHT22;44977;53.132;6.408;2023-04-15T12:16:52;10.20;99.90
59208;DHT22;44977;53.132;6.408;2023-04-15T12:22:00;10.20;99.90
59208;DHT22;44977;53.132;6.408;2023-04-15T12:27:08;10.20;99.90
59208;DHT22;44977;53.132;6.408;2023-04-15T12:32:11;10.10;99.90
59208;DHT22;44977;53.132;6.408;2023-04-15T12:37:12;10.00;99.90
59208;DHT22;44977;53.132;6.408;2023-04-15T12:42:15;10.00;99.90
59208;DHT22;44977;53.132;6.408;2023-04-15T12:47:16;10.00;99.90
59208;DHT22;44977;53.132;6.408;2023-04-15T12:52:16;10.10;99.90
59208;DHT22;44977;53.132;6.408;2023-04-15T12:57:17;10.10;99.90
59208;DHT22;44977;53.132;6.408;2023-04-15T13:02:18;10.10;99.90
59208;DHT22;44977;53.132;6.408;2023-04-15T13:07:20;10.10;99.90
59208;DHT22;44977;53.132;6.408;2023-04-15T13:12:21;10.10;99.90
59208;DHT22;44977;53.132;6.408;2023-04-15T13:17:21;10.10;99.90
59208;DHT22;44977;53.132;6.408;2023-04-15T13:22:22;10.10;99.90
59208;DHT22;44977;53.132;6.408;2023-04-15T13:27:23;10.10;99.90
59208;DHT22;44977;53.132;6.408;2023-04-15T13:32:24;10.10;99.90
59208;DHT22;44977;53.132;6.408;2023-04-15T13:37:26;10.10;99.90
59208;DHT22;44977;53.132;6.408;2023-04-15T13:42:27;10.00;99.90
59208;DHT22;44977;53.132;6.408;2023-04-15T13:47:28;10.00;99.90
59208;DHT22;44977;53.132;6.408;2023-04-15T13:52:28;9.90;99.90
59208;DHT22;44977;53.132;6.408;2023-04-15T13:57:30;9.90;99.90
59208;DHT22;44977;53.132;6.408;2023-04-15T14:02:31;9.80;99.90
59208;DHT22;44977;53.132;6.408;2023-04-15T14:07:31;9.80;99.90
59208;DHT22;44977;53.132;6.408;2023-04-15T14:12:32;9.70;99.90
59208;DHT22;44977;53.132;6.408;2023-04-15T14:17:33;9.70;99.90
59208;DHT22;44977;53.132;6.408;2023-04-15T14:22:34;9.60;99.90
59208;DHT22;44977;53.132;6.408;2023-04-15T14:27:34;9.50;99.90
59208;DHT22;44977;53.132;6.408;2023-04-15T14:32:35;9.50;99.90
59208;DHT22;44977;53.132;6.408;2023-04-15T14:37:36;9.50;99.90
59208;DHT22;44977;53.132;6.408;2023-04-15T14:42:36;9.50;99.90
59208;DHT22;44977;53.132;6.408;2023-04-15T14:47:37;9.40;99.90
59208;DHT22;44977;53.132;6.408;2023-04-15T14:52:38;9.40;99.90
59208;DHT22;44977;53.132;6.408;2023-04-15T14:57:40;9.30;99.90
59208;DHT22;44977;53.132;6.408;2023-04-15T15:02:41;9.30;99.90
59208;DHT22;44977;53.132;6.408;2023-04-15T15:07:41;9.20;99.90
59208;DHT22;44977;53.132;6.408;2023-04-15T15:12:42;9.20;99.90
59208;DHT22;44977;53.132;6.408;2023-04-15T15:17:43;9.20;99.90
59208;DHT22;44977;53.132;6.408;2023-04-15T15:22:43;9.20;99.90
59208;DHT22;44977;53.132;6.408;2023-04-15T15:27:44;9.20;99.90
59208;DHT22;44977;53.132;6.408;2023-04-15T15:32:45;9.10;99.90
59208;DHT22;44977;53.132;6.408;2023-04-15T15:37:45;9.10;99.90
59208;DHT22;44977;53.132;6.408;2023-04-15T15:42:46;9.10;99.90
59208;DHT22;44977;53.132;6.408;2023-04-15T15:47:49;9.00;99.90
59208;DHT22;44977;53.132;6.408;2023-04-15T15:52:50;8.90;99.90
59208;DHT22;44977;53.132;6.408;2023-04-15T15:57:51;8.90;99.90
59208;DHT22;44977;53.132;6.408;2023-04-15T16:02:54;8.90;99.90
59208;DHT22;44977;53.132;6.408;2023-04-15T16:07:56;8.80;99.90
59208;DHT22;44977;53.132;6.408;2023-04-15T16:12:57;8.80;99.90
59208;DHT22;44977;53.132;6.408;2023-04-15T16:17:57;8.80;99.90
59208;DHT22;44977;53.132;6.408;2023-04-15T16:22:58;8.80;99.90
59208;DHT22;44977;53.132;6.408;2023-04-15T16:27:59;8.80;99.90
59208;DHT22;44977;53.132;6.408;2023-04-15T16:33:00;8.80;99.90
59208;DHT22;44977;53.132;6.408;2023-04-15T16:38:00;8.70;99.90
59208;DHT22;44977;53.132;6.408;2023-04-15T16:43:02;8.70;99.90
59208;DHT22;44977;53.132;6.408;2023-04-15T16:48:03;8.70;99.90
59208;DHT22;44977;53.132;6.408;2023-04-15T16:53:03;8.70;99.90
59208;DHT22;44977;53.132;6.408;2023-04-15T16:58:04;8.60;99.90
59208;DHT22;44977;53.132;6.408;2023-04-15T17:03:05;8.60;99.90
59208;DHT22;44977;53.132;6.408;2023-04-15T17:08:06;8.50;99.90
59208;DHT22;44977;53.132;6.408;2023-04-15T17:13:07;8.60;99.90
59208;DHT22;44977;53.132;6.408;2023-04-15T17:18:08;8.50;99.90
59208;DHT22;44977;53.132;6.408;2023-04-15T17:23:10;8.50;99.90
59208;DHT22;44977;53.132;6.408;2023-04-15T17:28:10;8.40;99.90
59208;DHT22;44977;53.132;6.408;2023-04-15T17:33:11;8.40;99.90
59208;DHT22;44977;53.132;6.408;2023-04-15T17:38:12;8.50;99.90
59208;DHT22;44977;53.132;6.408;2023-04-15T17:43:12;8.40;99.90
59208;DHT22;44977;53.132;6.408;2023-04-15T17:48:13;8.40;99.90
59208;DHT22;44977;53.132;6.408;2023-04-15T17:53:14;8.40;99.90
59208;DHT22;44977;53.132;6.408;2023-04-15T17:58:15;8.40;99.90
59208;DHT22;44977;53.132;6.408;2023-04-15T18:03:16;8.40;99.90
59208;DHT22;44977;53.132;6.408;2023-04-15T18:08:17;8.40;99.90
59208;DHT22;44977;53.132;6.408;2023-04-15T18:13:17;8.40;99.90
59208;DHT22;44977;53.132;6.408;2023-04-15T18:18:18;8.40;99.90
59208;DHT22;44977;53.132;6.408;2023-04-15T18:23:18;8.40;99.90
59208;DHT22;44977;53.132;6.408;2023-04-15T18:28:19;8.30;99.90
59208;DHT22;44977;53.132;6.408;2023-04-15T18:33:22;8.30;99.90
59208;DHT22;44977;53.132;6.408;2023-04-15T18:38:23;8.30;99.90
59208;DHT22;44977;53.132;6.408;2023-04-15T18:43:23;8.40;99.90
59208;DHT22;44977;53.132;6.408;2023-04-15T18:48:27;8.40;99.90
59208;DHT22;44977;53.132;6.408;2023-04-15T18:53:28;8.40;99.90
59208;DHT22;44977;53.132;6.408;2023-04-15T18:58:29;8.40;99.90
59208;DHT22;44977;53.132;6.408;2023-04-15T19:03:29;8.30;99.90
59208;DHT22;44977;53.132;6.408;2023-04-15T19:08:31;8.40;99.90
59208;DHT22;44977;53.132;6.408;2023-04-15T19:13:31;8.40;99.90
59208;DHT22;44977;53.132;6.408;2023-04-15T19:18:32;8.40;99.90
59208;DHT22;44977;53.132;6.408;2023-04-15T19:23:33;8.40;99.90
59208;DHT22;44977;53.132;6.408;2023-04-15T19:28:33;8.40;99.90
59208;DHT22;44977;53.132;6.408;2023-04-15T19:33:34;8.40;99.90
59208;DHT22;44977;53.132;6.408;2023-04-15T19:38:35;8.40;99.90
59208;DHT22;44977;53.132;6.408;2023-04-15T19:43:36;8.40;99.90
59208;DHT22;44977;53.132;6.408;2023-04-15T19:48:37;8.40;99.90
59208;DHT22;44977;53.132;6.408;2023-04-15T19:53:38;8.40;99.90
59208;DHT22;44977;53.132;6.408;2023-04-15T19:58:40;8.40;99.90
59208;DHT22;44977;53.132;6.408;2023-04-15T20:03:40;8.50;99.90
59208;DHT22;44977;53.132;6.408;2023-04-15T20:08:41;8.50;99.90
59208;DHT22;44977;53.132;6.408;2023-04-15T20:13:42;8.50;99.90
59208;DHT22;44977;53.132;6.408;2023-04-15T20:18:42;8.50;99.90
59208;DHT22;44977;53.132;6.408;2023-04-15T20:23:43;8.50;99.90
59208;DHT22;44977;53.132;6.408;2023-04-15T20:28:44;8.50;99.90
59208;DHT22;44977;53.132;6.408;2023-04-15T20:33:45;8.60;99.90
59208;DHT22;44977;53.132;6.408;2023-04-15T20:38:45;8.50;99.90
59208;DHT22;44977;53.132;6.408;2023-04-15T20:43:46;8.60;99.90
59208;DHT22;44977;53.132;6.408;2023-04-15T20:48:47;8.60;99.90
59208;DHT22;44977;53.132;6.408;2023-04-15T20:53:47;8.60;99.90
59208;DHT22;44977;53.132;6.408;2023-04-15T20:58:49;8.60;99.90
59208;DHT22;44977;53.132;6.408;2023-04-15T21:03:49;8.60;99.90
59208;DHT22;44977;53.132;6.408;2023-04-15T21:08:50;8.60;99.90
59208;DHT22;44977;53.132;6.408;2023-04-15T21:13:51;8.60;99.90
59208;DHT22;44977;53.132;6.408;2023-04-15T21:18:52;8.60;99.90
59208;DHT22;44977;53.132;6.408;2023-04-15T21:23:53;8.60;99.90
59208;DHT22;44977;53.132;6.408;2023-04-15T21:28:54;8.60;99.90
59208;DHT22;44977;53.132;6.408;2023-04-15T21:33:55;8.60;99.90
59208;DHT22;44977;53.132;6.408;2023-04-15T21:38:56;8.60;99.90
59208;DHT22;44977;53.132;6.408;2023-04-15T21:43:57;8.60;99.90
59208;DHT22;44977;53.132;6.408;2023-04-15T21:48:58;8.70;99.90
59208;DHT22;44977;53.132;6.408;2023-04-15T21:53:58;8.60;99.90
59208;DHT22;44977;53.132;6.408;2023-04-15T21:58:59;8.60;99.90
59208;DHT22;44977;53.132;6.408;2023-04-15T22:04:00;8.60;99.90
59208;DHT22;44977;53.132;6.408;2023-04-15T22:09:01;8.60;99.90
59208;DHT22;44977;53.132;6.408;2023-04-15T22:14:01;8.60;99.90
59208;DHT22;44977;53.132;6.408;2023-04-15T22:19:03;8.60;99.90
59208;DHT22;44977;53.132;6.408;2023-04-15T22:24:04;8.60;99.90
59208;DHT22;44977;53.132;6.408;2023-04-15T22:29:06;8.60;99.90
59208;DHT22;44977;53.132;6.408;2023-04-15T22:34:06;8.60;99.90
59208;DHT22;44977;53.132;6.408;2023-04-15T22:39:08;8.60;99.90
59208;DHT22;44977;53.132;6.408;2023-04-15T22:44:08;8.60;99.90
59208;DHT22;44977;53.132;6.408;2023-04-15T22:49:09;8.60;99.90
59208;DHT22;44977;53.132;6.408;2023-04-15T22:54:10;8.60;99.90
59208;DHT22;44977;53.132;6.408;2023-04-15T22:59:10;8.70;99.90
59208;DHT22;44977;53.132;6.408;2023-04-15T23:04:11;8.60;99.90
59208;DHT22;44977;53.132;6.408;2023-04-15T23:09:12;8.60;99.90
59208;DHT22;44977;53.132;6.408;2023-04-15T23:14:12;8.60;99.90
59208;DHT22;44977;53.132;6.408;2023-04-15T23:19:13;8.70;99.90
59208;DHT22;44977;53.132;6.408;2023-04-15T23:24:14;8.70;99.90
59208;DHT22;44977;53.132;6.408;2023-04-15T23:29:15;8.70;99.90
59208;DHT22;44977;53.132;6.408;2023-04-15T23:34:15;8.70;99.90
59208;DHT22;44977;53.132;6.408;2023-04-15T23:39:16;8.70;99.90
59208;DHT22;44977;53.132;6.408;2023-04-15T23:44:17;8.70;99.90
59208;DHT22;44977;53.132;6.408;2023-04-15T23:49:17;8.70;99.90
59208;DHT22;44977;53.132;6.408;2023-04-15T23:54:18;8.70;99.90
59208;DHT22;44977;53.132;6.408;2023-04-15T23:59:19;8.70;99.90
